createdAt,value
2017-08-22T00:01:17.443Z,10.80
2017-08-22T00:03:46.303Z,10.80
2017-08-22T00:06:15.212Z,10.70
2017-08-22T00:08:44.105Z,10.70
2017-08-22T00:11:13.015Z,10.70
2017-08-22T00:13:42.685Z,10.70
2017-08-22T00:16:11.535Z,10.60
2017-08-22T00:18:40.414Z,10.70
2017-08-22T00:21:09.575Z,10.70
2017-08-22T00:23:38.506Z,10.70
2017-08-22T00:26:07.379Z,10.80
2017-08-22T00:28:36.411Z,10.80
2017-08-22T00:31:05.347Z,10.80
2017-08-22T00:33:34.251Z,10.90
2017-08-22T00:36:03.151Z,10.90
2017-08-22T00:38:32.023Z,10.90
2017-08-22T00:41:00.918Z,10.80
2017-08-22T00:43:29.951Z,10.80
2017-08-22T00:45:59.035Z,10.80
2017-08-22T00:48:28.013Z,10.80
2017-08-22T00:50:57.036Z,10.80
2017-08-22T00:56:19.287Z,10.80
2017-08-22T00:58:48.182Z,10.80
2017-08-22T01:01:17.084Z,10.80
2017-08-22T01:03:46.231Z,10.80
2017-08-22T01:06:15.223Z,10.70
2017-08-22T01:08:44.141Z,10.80
2017-08-22T01:11:13.050Z,10.80
2017-08-22T01:13:42.755Z,10.50
2017-08-22T01:16:11.639Z,10.50
2017-08-22T01:18:40.575Z,10.30
2017-08-22T01:21:09.567Z,10.10
2017-08-22T01:23:38.561Z,10.10
2017-08-22T01:26:07.547Z,10.00
2017-08-22T01:28:36.507Z,10.00
2017-08-22T01:31:06.164Z,9.90
2017-08-22T01:33:35.134Z,9.90
2017-08-22T01:36:04.121Z,9.90
2017-08-22T01:38:33.830Z,9.80
2017-08-22T01:41:03.595Z,9.80
2017-08-22T01:43:32.570Z,9.80
2017-08-22T01:46:01.480Z,9.80
2017-08-22T01:48:30.401Z,9.80
2017-08-22T01:50:59.245Z,9.80
2017-08-22T01:53:28.066Z,9.80
2017-08-22T01:55:56.955Z,9.80
2017-08-22T01:58:25.831Z,9.80
2017-08-22T02:00:54.694Z,9.90
2017-08-22T02:03:23.594Z,9.90
2017-08-22T02:05:52.514Z,9.90
2017-08-22T02:08:21.466Z,9.90
2017-08-22T02:10:50.355Z,9.90
2017-08-22T02:13:19.233Z,9.90
2017-08-22T02:15:48.076Z,9.90
2017-08-22T02:18:16.947Z,9.80
2017-08-22T02:20:45.847Z,9.80
2017-08-22T02:23:14.694Z,9.80
2017-08-22T02:25:43.590Z,9.80
2017-08-22T02:28:12.482Z,9.80
2017-08-22T02:30:41.486Z,9.80
2017-08-22T02:33:10.390Z,9.70
2017-08-22T02:35:39.248Z,9.70
2017-08-22T02:38:08.088Z,9.60
2017-08-22T02:40:36.943Z,9.60
2017-08-22T02:43:05.820Z,9.50
2017-08-22T02:45:34.693Z,9.50
2017-08-22T02:48:03.552Z,9.50
2017-08-22T02:50:32.438Z,9.40
2017-08-22T02:53:01.312Z,9.40
2017-08-22T02:55:30.251Z,9.40
2017-08-22T02:57:59.183Z,9.40
2017-08-22T03:00:28.039Z,9.40
2017-08-22T03:02:56.944Z,9.30
2017-08-22T03:05:26.565Z,9.30
2017-08-22T03:07:55.427Z,9.30
2017-08-22T03:10:24.322Z,9.40
2017-08-22T03:12:53.242Z,9.40
2017-08-22T03:15:22.439Z,9.30
2017-08-22T03:17:51.360Z,9.30
2017-08-22T03:20:21.042Z,9.30
2017-08-22T03:22:49.907Z,9.20
2017-08-22T03:25:18.761Z,9.30
2017-08-22T03:27:47.658Z,9.30
2017-08-22T03:30:17.307Z,9.40
2017-08-22T03:32:46.184Z,9.30
2017-08-22T03:35:15.095Z,9.40
2017-08-22T03:37:43.969Z,9.50
2017-08-22T03:40:12.891Z,9.60
2017-08-22T03:42:41.767Z,9.60
2017-08-22T03:45:10.688Z,9.70
2017-08-22T03:47:39.589Z,9.70
2017-08-22T03:50:08.462Z,9.80
2017-08-22T03:52:37.354Z,9.80
2017-08-22T03:55:06.248Z,9.80
2017-08-22T03:57:35.111Z,9.70
2017-08-22T04:00:03.995Z,9.70
2017-08-22T04:02:32.910Z,9.70
2017-08-22T04:05:01.801Z,9.70
2017-08-22T04:07:30.667Z,9.70
2017-08-22T04:09:59.554Z,9.80
2017-08-22T04:14:47.459Z,9.90
2017-08-22T04:17:17.351Z,9.90
2017-08-22T04:19:47.373Z,9.90
2017-08-22T04:22:16.226Z,9.80
2017-08-22T04:24:45.138Z,9.90
2017-08-22T04:27:14.006Z,9.90
2017-08-22T04:29:42.967Z,9.90
2017-08-22T04:32:12.682Z,9.90
2017-08-22T04:34:41.858Z,9.90
2017-08-22T04:37:10.778Z,9.90
2017-08-22T04:39:39.679Z,9.80
2017-08-22T04:42:08.596Z,9.80
2017-08-22T04:44:37.489Z,9.80
2017-08-22T04:47:06.433Z,9.80
2017-08-22T04:49:36.067Z,9.80
2017-08-22T04:52:05.718Z,9.80
2017-08-22T04:54:34.596Z,9.70
2017-08-22T04:57:03.538Z,9.80
2017-08-22T04:59:32.451Z,9.90
2017-08-22T05:02:01.386Z,9.90
2017-08-22T05:04:30.277Z,9.90
2017-08-22T05:06:59.177Z,10.00
2017-08-22T05:09:28.102Z,10.10
2017-08-22T05:11:57.014Z,10.20
2017-08-22T05:14:25.908Z,10.30
2017-08-22T05:16:54.783Z,10.30
2017-08-22T05:19:25.551Z,10.30
2017-08-22T05:21:54.416Z,10.40
2017-08-22T05:24:23.990Z,10.50
2017-08-22T05:26:53.007Z,10.60
2017-08-22T05:29:24.404Z,10.70
2017-08-22T05:31:54.097Z,11.00
2017-08-22T05:34:23.062Z,11.00
2017-08-22T05:36:51.968Z,11.10
2017-08-22T05:39:20.867Z,11.10
2017-08-22T05:41:49.788Z,11.20
2017-08-22T05:44:19.447Z,11.60
2017-08-22T05:46:48.357Z,11.50
2017-08-22T05:49:17.239Z,11.80
2017-08-22T05:51:46.132Z,12.00
2017-08-22T05:54:15.022Z,12.20
2017-08-22T05:56:43.926Z,12.40
2017-08-22T05:59:13.637Z,12.60
2017-08-22T06:01:42.617Z,12.50
2017-08-22T06:04:11.558Z,12.80
2017-08-22T06:06:40.423Z,13.00
2017-08-22T06:09:10.126Z,13.10
2017-08-22T06:11:38.989Z,13.10
2017-08-22T06:14:07.887Z,13.20
2017-08-22T06:16:36.798Z,13.20
2017-08-22T06:19:05.694Z,13.20
2017-08-22T06:21:34.623Z,13.20
2017-08-22T06:24:04.315Z,13.30
2017-08-22T06:26:34.040Z,13.50
2017-08-22T06:29:03.061Z,13.40
2017-08-22T06:31:32.065Z,13.60
2017-08-22T06:34:01.003Z,13.80
2017-08-22T06:36:29.915Z,14.00
2017-08-22T06:38:59.594Z,14.70
2017-08-22T06:41:29.252Z,15.20
2017-08-22T06:43:58.163Z,15.10
2017-08-22T06:46:27.071Z,15.70
2017-08-22T06:48:56.768Z,16.50
2017-08-22T06:51:25.676Z,16.40
2017-08-22T06:53:55.341Z,17.00
2017-08-22T06:56:24.998Z,17.20
2017-08-22T06:58:53.977Z,17.10
2017-08-22T07:01:23.186Z,17.40
2017-08-22T07:03:52.138Z,17.20
2017-08-22T07:06:21.067Z,17.30
2017-08-22T07:08:49.998Z,17.70
2017-08-22T07:11:18.893Z,18.10
2017-08-22T07:13:48.792Z,18.30
2017-08-22T07:16:17.685Z,18.20
2017-08-22T07:18:46.540Z,18.30
2017-08-22T07:21:16.230Z,18.30
2017-08-22T07:23:45.190Z,18.20
2017-08-22T07:26:14.134Z,18.30
2017-08-22T07:28:43.853Z,18.60
2017-08-22T07:31:13.205Z,18.60
2017-08-22T07:33:42.229Z,18.90
2017-08-22T07:36:11.150Z,19.10
2017-08-22T07:38:40.077Z,19.30
2017-08-22T07:41:09.054Z,19.00
2017-08-22T07:43:37.925Z,19.30
2017-08-22T07:46:06.850Z,19.60
2017-08-22T07:48:35.813Z,20.10
2017-08-22T07:51:04.755Z,20.20
2017-08-22T07:53:33.638Z,20.30
2017-08-22T07:56:02.538Z,20.10
2017-08-22T07:58:31.470Z,20.00
2017-08-22T08:01:00.371Z,19.80
2017-08-22T08:03:29.276Z,20.20
2017-08-22T08:05:58.222Z,20.60
2017-08-22T08:08:28.039Z,21.50
2017-08-22T08:10:57.700Z,21.70
2017-08-22T08:13:26.726Z,21.70
2017-08-22T08:15:55.647Z,22.30
2017-08-22T08:18:24.671Z,22.80
2017-08-22T08:20:53.751Z,22.70
2017-08-22T08:23:22.668Z,23.50
2017-08-22T08:25:51.676Z,23.10
2017-08-22T08:28:20.530Z,23.20
2017-08-22T08:30:50.504Z,24.40
2017-08-22T08:33:20.199Z,25.20
2017-08-22T08:38:27.178Z,25.10
2017-08-22T08:40:56.204Z,26.00
2017-08-22T08:43:25.131Z,26.00
2017-08-22T08:45:54.056Z,25.80
2017-08-22T08:48:22.946Z,26.30
2017-08-22T08:50:51.845Z,26.60
2017-08-22T08:53:21.591Z,27.90
2017-08-22T08:55:50.526Z,27.80
2017-08-22T08:58:19.385Z,28.70
2017-08-22T09:00:48.236Z,28.30
2017-08-22T09:03:17.161Z,28.50
2017-08-22T09:05:46.860Z,28.90
2017-08-22T09:08:16.606Z,29.70
2017-08-22T09:10:45.494Z,29.60
2017-08-22T09:13:14.398Z,30.00
2017-08-22T09:15:43.326Z,30.70
2017-08-22T09:18:12.210Z,30.20
2017-08-22T09:20:41.094Z,29.50
2017-08-22T09:23:10.158Z,28.80
2017-08-22T09:25:39.738Z,27.90
2017-08-22T09:28:08.603Z,28.50
2017-08-22T09:30:37.510Z,28.50
2017-08-22T09:33:06.409Z,27.90
2017-08-22T09:35:36.138Z,26.60
2017-08-22T09:38:05.042Z,26.60
2017-08-22T09:40:34.775Z,28.60
2017-08-22T09:43:03.852Z,28.50
2017-08-22T09:45:32.738Z,29.60
2017-08-22T09:48:01.639Z,30.10
2017-08-22T09:50:30.545Z,30.10
2017-08-22T09:52:59.431Z,30.10
2017-08-22T09:55:29.117Z,30.20
2017-08-22T09:57:57.982Z,30.20
2017-08-22T10:00:26.970Z,31.10
2017-08-22T10:02:55.918Z,30.90
2017-08-22T10:05:24.860Z,29.60
2017-08-22T10:07:54.519Z,27.60
2017-08-22T10:10:23.418Z,27.40
2017-08-22T10:12:53.066Z,28.70
2017-08-22T10:15:21.962Z,28.60
2017-08-22T10:17:50.812Z,29.30
2017-08-22T10:20:19.733Z,29.70
2017-08-22T10:22:48.639Z,30.10
2017-08-22T10:25:17.558Z,30.60
2017-08-22T10:27:46.498Z,30.80
2017-08-22T10:30:16.256Z,31.00
2017-08-22T10:32:45.111Z,31.00
2017-08-22T10:35:14.024Z,30.80
2017-08-22T10:37:42.963Z,31.00
2017-08-22T10:40:15.739Z,30.50
2017-08-22T10:42:44.732Z,30.40
2017-08-22T10:45:13.661Z,29.90
2017-08-22T10:47:42.575Z,29.70
2017-08-22T10:50:11.486Z,29.50
2017-08-22T10:52:40.406Z,29.60
2017-08-22T10:55:10.112Z,29.70
2017-08-22T10:57:39.774Z,29.80
2017-08-22T11:00:08.665Z,29.70
2017-08-22T11:02:38.451Z,30.10
2017-08-22T11:05:07.526Z,30.00
2017-08-22T11:07:37.229Z,29.50
2017-08-22T11:10:07.006Z,29.60
2017-08-22T11:12:35.975Z,29.60
2017-08-22T11:15:04.915Z,29.70
2017-08-22T11:17:33.851Z,29.40
2017-08-22T11:20:02.827Z,29.50
2017-08-22T11:22:31.768Z,29.80
2017-08-22T11:25:00.714Z,29.80
2017-08-22T11:27:30.405Z,29.20
2017-08-22T11:30:00.185Z,29.10
2017-08-22T11:32:29.093Z,29.10
2017-08-22T11:34:58.119Z,28.30
2017-08-22T11:37:27.092Z,28.00
2017-08-22T11:39:56.868Z,27.10
2017-08-22T11:42:26.178Z,27.00
2017-08-22T11:44:55.090Z,26.70
2017-08-22T11:47:24.015Z,26.40
2017-08-22T11:49:52.879Z,25.90
2017-08-22T11:52:21.788Z,25.60
2017-08-22T11:54:51.053Z,25.40
2017-08-22T11:57:20.007Z,25.60
2017-08-22T12:01:08.380Z,25.60
2017-08-22T12:03:37.454Z,25.50
2017-08-22T12:06:06.419Z,24.70
2017-08-22T12:08:35.375Z,24.30
2017-08-22T12:11:04.307Z,24.20
2017-08-22T12:13:33.294Z,24.60
2017-08-22T12:16:02.198Z,25.20
2017-08-22T12:18:31.359Z,25.40
2017-08-22T12:21:01.050Z,25.30
2017-08-22T12:23:30.024Z,25.30
2017-08-22T12:26:00.034Z,25.50
2017-08-22T12:28:28.994Z,25.70
2017-08-22T12:30:58.028Z,25.90
2017-08-22T12:33:26.985Z,26.10
2017-08-22T12:35:55.913Z,26.20
2017-08-22T12:38:24.826Z,25.90
2017-08-22T12:40:53.743Z,26.20
2017-08-22T12:43:22.716Z,26.20
2017-08-22T12:45:51.702Z,25.90
2017-08-22T12:48:20.671Z,25.40
2017-08-22T12:50:49.580Z,24.80
2017-08-22T12:53:18.551Z,25.00
2017-08-22T12:55:47.531Z,25.10
2017-08-22T12:58:17.351Z,25.60
2017-08-22T13:00:46.371Z,25.50
2017-08-22T13:03:15.375Z,25.80
2017-08-22T13:05:44.350Z,25.30
2017-08-22T13:08:13.262Z,24.90
2017-08-22T13:10:42.146Z,24.60
2017-08-22T13:13:11.039Z,24.40
2017-08-22T13:15:40.013Z,24.90
2017-08-22T13:18:09.003Z,25.20
2017-08-22T13:20:37.903Z,25.00
2017-08-22T13:23:07.626Z,24.20
2017-08-22T13:25:36.607Z,24.10
2017-08-22T13:28:05.610Z,23.80
2017-08-22T13:30:34.530Z,23.70
2017-08-22T13:33:04.390Z,23.30
2017-08-22T13:35:34.070Z,23.10
2017-08-22T13:38:03.205Z,23.00
2017-08-22T13:40:32.159Z,23.00
2017-08-22T13:43:01.090Z,23.10
2017-08-22T13:45:30.116Z,23.20
2017-08-22T13:47:59.830Z,23.70
2017-08-22T13:50:29.538Z,23.80
2017-08-22T13:52:58.490Z,23.70
2017-08-22T13:55:27.434Z,23.80
2017-08-22T13:57:56.370Z,23.70
2017-08-22T14:00:26.065Z,23.20
2017-08-22T14:02:54.981Z,23.20
2017-08-22T14:05:23.901Z,23.10
2017-08-22T14:07:52.795Z,23.10
2017-08-22T14:10:22.837Z,23.20
2017-08-22T14:15:29.879Z,23.10
2017-08-22T14:17:59.087Z,23.30
2017-08-22T14:20:28.045Z,22.80
2017-08-22T14:22:57.892Z,22.80
2017-08-22T14:25:26.886Z,22.70
2017-08-22T14:27:56.555Z,22.50
2017-08-22T14:30:25.538Z,22.50
2017-08-22T14:32:54.418Z,22.50
2017-08-22T14:35:24.188Z,22.20
2017-08-22T14:37:53.276Z,22.10
2017-08-22T14:40:22.954Z,22.20
2017-08-22T14:42:51.888Z,22.20
2017-08-22T14:45:21.095Z,22.40
2017-08-22T14:47:50.771Z,22.20
2017-08-22T14:50:19.753Z,22.20
2017-08-22T14:52:48.751Z,22.30
2017-08-22T14:55:18.501Z,22.30
2017-08-22T14:57:48.307Z,22.30
2017-08-22T15:00:18.138Z,22.20
2017-08-22T15:02:47.094Z,22.20
2017-08-22T15:05:16.844Z,22.10
2017-08-22T15:07:45.773Z,22.00
2017-08-22T15:11:34.016Z,21.80
2017-08-22T15:14:02.965Z,21.70
2017-08-22T15:16:32.644Z,21.20
2017-08-22T15:19:01.550Z,21.10
2017-08-22T15:21:30.706Z,21.30
2017-08-22T15:24:00.592Z,21.20
2017-08-22T15:26:29.493Z,21.20
2017-08-22T15:28:58.416Z,21.10
2017-08-22T15:31:27.468Z,21.00
2017-08-22T15:33:56.520Z,20.90
2017-08-22T15:36:25.468Z,20.90
2017-08-22T15:38:54.748Z,20.90
2017-08-22T15:41:24.434Z,20.80
2017-08-22T15:43:53.379Z,20.80
2017-08-22T15:46:22.337Z,20.60
2017-08-22T15:48:52.080Z,20.30
2017-08-22T15:51:21.094Z,20.20
2017-08-22T15:53:50.006Z,20.20
2017-08-22T15:56:18.931Z,20.20
2017-08-22T15:58:48.707Z,20.40
2017-08-22T16:01:18.555Z,20.50
2017-08-22T16:03:47.588Z,20.40
2017-08-22T16:06:16.626Z,20.40
2017-08-22T16:08:46.379Z,20.40
2017-08-22T16:11:15.310Z,20.30
2017-08-22T16:13:44.241Z,20.20
2017-08-22T16:16:13.236Z,20.20
2017-08-22T16:18:42.174Z,20.10
2017-08-22T16:21:11.057Z,20.10
2017-08-22T16:23:40.010Z,20.10
2017-08-22T16:26:09.022Z,19.90
2017-08-22T16:28:38.001Z,19.90
2017-08-22T16:31:06.936Z,19.80
2017-08-22T16:33:35.900Z,19.80
2017-08-22T16:36:04.882Z,19.70
2017-08-22T16:38:33.871Z,19.70
2017-08-22T16:41:02.892Z,19.70
2017-08-22T16:43:31.905Z,19.50
2017-08-22T16:46:00.888Z,19.40
2017-08-22T16:48:35.475Z,19.50
2017-08-22T16:51:04.450Z,19.50
2017-08-22T16:53:33.376Z,19.20
2017-08-22T16:56:02.308Z,19.10
2017-08-22T16:58:31.231Z,19.00
2017-08-22T17:01:03.540Z,19.00
2017-08-22T17:03:33.287Z,18.80
2017-08-22T17:06:02.304Z,18.80
2017-08-22T17:08:32.138Z,18.60
2017-08-22T17:11:01.153Z,18.60
2017-08-22T17:13:30.902Z,18.50
2017-08-22T17:15:59.882Z,18.40
2017-08-22T17:18:30.986Z,18.30
2017-08-22T17:21:00.041Z,18.30
2017-08-22T17:23:30.610Z,18.10
2017-08-22T17:26:00.311Z,18.10
2017-08-22T17:28:29.274Z,18.00
2017-08-22T17:30:58.995Z,17.90
2017-08-22T17:33:28.014Z,17.90
2017-08-22T17:35:56.965Z,17.80
2017-08-22T17:38:27.155Z,17.80
2017-08-22T17:40:56.175Z,17.80
2017-08-22T17:43:25.898Z,17.60
2017-08-22T17:45:55.591Z,17.70
2017-08-22T17:48:24.563Z,17.60
2017-08-22T17:50:53.519Z,17.50
2017-08-22T17:53:22.453Z,17.60
2017-08-22T17:55:51.380Z,17.50
2017-08-22T17:58:20.331Z,17.50
2017-08-22T18:00:49.413Z,17.40
2017-08-22T18:03:18.416Z,17.30
2017-08-22T18:05:47.423Z,17.20
2017-08-22T18:08:17.123Z,17.10
2017-08-22T18:10:46.062Z,17.00
2017-08-22T18:13:14.982Z,17.00
2017-08-22T18:15:44.017Z,17.00
2017-08-22T18:18:13.047Z,16.90
2017-08-22T18:20:41.966Z,16.80
2017-08-22T18:23:10.949Z,16.70
2017-08-22T18:25:39.874Z,16.70
2017-08-22T18:28:08.975Z,16.50
2017-08-22T18:30:37.971Z,16.40
2017-08-22T18:33:07.670Z,16.30
2017-08-22T18:35:36.555Z,16.30
2017-08-22T18:38:05.491Z,16.30
2017-08-22T18:40:34.398Z,16.30
2017-08-22T18:43:03.361Z,16.40
2017-08-22T18:45:32.339Z,16.30
2017-08-22T18:48:01.287Z,16.20
2017-08-22T18:50:30.359Z,16.10
2017-08-22T18:52:59.264Z,15.90
2017-08-22T18:55:28.209Z,15.70
2017-08-22T18:57:57.194Z,15.70
2017-08-22T19:00:26.129Z,15.60
2017-08-22T19:02:55.102Z,15.50
2017-08-22T19:05:24.070Z,15.50
2017-08-22T19:07:53.739Z,15.20
2017-08-22T19:10:23.441Z,15.20
2017-08-22T19:12:53.224Z,15.10
2017-08-22T19:15:22.928Z,15.00
2017-08-22T19:17:51.876Z,15.00
2017-08-22T19:20:20.850Z,15.00
2017-08-22T19:22:49.818Z,14.90
2017-08-22T19:25:18.798Z,15.00
2017-08-22T19:27:47.846Z,15.00
2017-08-22T19:30:16.876Z,15.00
2017-08-22T19:32:46.603Z,14.90
2017-08-22T19:35:15.704Z,14.80
2017-08-22T19:37:44.658Z,14.80
2017-08-22T19:40:14.330Z,14.70
2017-08-22T19:42:43.275Z,14.60
2017-08-22T19:45:12.454Z,14.60
2017-08-22T19:47:42.111Z,14.50
2017-08-22T19:50:11.044Z,14.50
2017-08-22T19:52:39.999Z,14.50
2017-08-22T19:55:09.010Z,14.40
2017-08-22T19:57:37.985Z,14.40
2017-08-22T20:00:06.912Z,14.40
2017-08-22T20:02:35.822Z,14.30
2017-08-22T20:05:05.555Z,14.20
2017-08-22T20:07:34.547Z,14.10
2017-08-22T20:10:03.475Z,14.10
2017-08-22T20:12:33.191Z,14.00
2017-08-22T20:15:02.130Z,13.90
2017-08-22T20:17:31.895Z,13.90
2017-08-22T20:20:00.883Z,13.80
2017-08-22T20:22:29.886Z,13.90
2017-08-22T20:24:58.858Z,13.70
2017-08-22T20:27:28.690Z,13.90
2017-08-22T20:29:57.616Z,13.80
2017-08-22T20:32:27.339Z,13.80
2017-08-22T20:35:26.710Z,13.80
2017-08-22T20:37:55.611Z,13.80
2017-08-22T20:40:24.500Z,13.80
2017-08-22T20:42:53.387Z,13.80
2017-08-22T20:45:22.580Z,13.80
2017-08-22T20:47:52.263Z,13.50
2017-08-22T20:50:21.210Z,13.50
2017-08-22T20:52:50.136Z,13.50
2017-08-22T20:55:19.128Z,13.50
2017-08-22T20:57:48.121Z,13.40
2017-08-22T21:00:17.103Z,13.30
2017-08-22T21:02:46.051Z,13.40
2017-08-22T21:05:15.258Z,13.40
2017-08-22T21:07:44.943Z,13.40
2017-08-22T21:10:13.948Z,13.30
2017-08-22T21:12:43.746Z,13.50
2017-08-22T21:15:12.687Z,13.40
2017-08-22T21:17:42.696Z,13.60
2017-08-22T21:20:11.663Z,13.50
2017-08-22T21:22:41.385Z,13.40
2017-08-22T21:25:11.091Z,13.30
2017-08-22T21:27:40.035Z,13.30
2017-08-22T21:30:08.970Z,13.30
2017-08-22T21:32:38.643Z,13.20
2017-08-22T21:35:07.574Z,13.10
2017-08-22T21:37:37.247Z,12.90
2017-08-22T21:40:06.123Z,12.90
2017-08-22T21:42:35.035Z,12.80
2017-08-22T21:45:03.906Z,12.80
2017-08-22T21:47:32.799Z,12.80
2017-08-22T21:50:01.797Z,12.70
2017-08-22T21:52:30.737Z,12.60
2017-08-22T21:54:59.635Z,12.60
2017-08-22T21:57:29.281Z,12.60
2017-08-22T21:59:58.167Z,12.50
2017-08-22T22:02:27.054Z,12.60
2017-08-22T22:04:55.934Z,12.70
2017-08-22T22:07:24.873Z,12.70
2017-08-22T22:09:53.766Z,12.80
2017-08-22T22:12:22.641Z,12.80
2017-08-22T22:14:51.620Z,12.70
2017-08-22T22:17:20.622Z,12.80
2017-08-22T22:19:49.499Z,12.80
2017-08-22T22:22:18.403Z,12.80
2017-08-22T22:24:47.281Z,12.70
2017-08-22T22:27:16.965Z,12.80
2017-08-22T22:29:45.853Z,12.80
2017-08-22T22:32:14.718Z,12.80
2017-08-22T22:34:43.617Z,12.70
2017-08-22T22:37:13.262Z,12.60
2017-08-22T22:39:42.126Z,12.50
2017-08-22T22:42:11.056Z,12.60
2017-08-22T22:44:39.994Z,12.50
2017-08-22T22:47:08.858Z,12.50
2017-08-22T22:49:37.810Z,12.50
2017-08-22T22:52:06.705Z,12.40
2017-08-22T22:54:35.816Z,12.30
2017-08-22T22:57:05.523Z,12.10
2017-08-22T22:59:34.450Z,12.10
2017-08-22T23:02:03.388Z,12.00
2017-08-22T23:04:32.270Z,11.90
2017-08-22T23:07:01.166Z,11.80
2017-08-22T23:09:30.146Z,11.70
2017-08-22T23:11:59.813Z,11.60
2017-08-22T23:14:29.468Z,11.50
2017-08-22T23:16:58.407Z,11.40
2017-08-22T23:19:27.335Z,11.50
2017-08-22T23:21:57.011Z,11.40
2017-08-22T23:24:26.187Z,11.30
2017-08-22T23:26:55.058Z,11.40
2017-08-22T23:29:23.933Z,11.20
2017-08-22T23:31:52.814Z,11.20
2017-08-22T23:34:21.734Z,11.20
2017-08-22T23:36:50.603Z,11.20
2017-08-22T23:39:20.255Z,11.20
2017-08-22T23:41:49.177Z,11.10
2017-08-22T23:44:18.845Z,11.10
2017-08-22T23:46:47.736Z,11.00
2017-08-22T23:49:16.595Z,11.10
2017-08-22T23:51:45.545Z,10.90
2017-08-22T23:54:14.479Z,10.80
2017-08-22T23:56:43.387Z,10.80
2017-08-22T23:59:12.299Z,10.80
